• Join FlightAware (Why Join?)
  • Login
  • US Flag 
03:24AM EDT


 

Airport Tracker/Info


-or-


 

Live Flight TrackerFlight Track Log ✈ EJA831 ✈ 21-Jun-2013 ✈ CYQB - CYBC

Flight Track Log - Related Links

Times and Time Zones

All times are in EDT time to prevent confusion due to time zone crossing. See the EJA831 flight status page for this flight to view local times or setup timezone preferences in your user account.

Time Position Orientation Groundspeed Altitude Reporting Facility
EDT Latitude Longitude Course Direction KTS MPH feet Rate Location/Type
02:20PM 46.7000 -71.4833 199° South 280 322 6,500  Level Montreal Center
02:21PM 46.6833 -71.4000 106° East 340 391 10,000 3,600 Climbing Montreal Center
02:22PM 46.7500 -71.3333 34° Northeast 290 334 13,700 3,540 Climbing Montreal Center
02:23PM 46.8333 -71.2833 22° Northeast 290 334 17,100 2,820 Climbing Montreal Center
02:24PM 47.0620 -71.1007 42° Northeast  Level FlightAware Approximate
02:24PM 46.9167 -71.2500 15° North 310 357 19,400  Level Montreal Center
02:25PM 47.1348 -71.0036 42° Northeast  Level FlightAware Approximate
02:25PM 47.0000 -71.1667 34° Northeast 340 391 21,000  Level Montreal Center
02:26PM 47.0833 -71.0667 39° Northeast 380 437 21,000  Level Montreal Center
02:27PM 47.1500 -70.9500 50° Northeast 390 449 21,000  Level Montreal Center
02:28PM 47.2333 -70.8500 39° Northeast 390 449 21,000  Level Montreal Center
02:29PM 47.3167 -70.7333 43° Northeast 390 449 21,000  Level Montreal Center
02:30PM 47.3833 -70.6333 45° Northeast 390 449 21,000  Level Montreal Center
02:31PM 47.4667 -70.5000 47° Northeast 390 449 21,000  Level Montreal Center
02:32PM 47.5500 -70.3833 43° Northeast 390 449 21,000  Level Montreal Center
02:33PM 47.6333 -70.2833 39° Northeast 390 449 21,000  Level Montreal Center
02:34PM 47.7000 -70.1667 50° Northeast 390 449 21,000  Level Montreal Center
02:35PM 47.7833 -70.0667 39° Northeast 390 449 21,000  Level Montreal Center
02:36PM 47.8667 -69.9500 43° Northeast 390 449 21,000  Level Montreal Center
02:37PM 47.9333 -69.8667 40° Northeast 390 449 21,000  Level Montreal Center
02:38PM 48.0167 -69.7333 40° Northeast 390 449 21,000  Level Montreal Center
02:39PM 48.0127 -69.7679 40° Northeast  Level FlightAware Approximate
02:39PM 48.1000 -69.6500 34° Northeast 390 449 21,000  Level Montreal Center
02:40PM 48.1833 -69.5333 43° Northeast 380 437 21,000  Level Montreal Center
02:41PM 48.2667 -69.4167 43° Northeast 380 437 21,000  Level Montreal Center
02:42PM 48.3500 -69.3167 39° Northeast 380 437 21,000  Level Montreal Center
02:44PM 48.4254 -69.2103 43° Northeast  Level FlightAware Approximate
02:45PM 48.5833 -68.9667 43° Northeast 380 437 21,000  Level Montreal Center
02:46PM 48.6500 -68.8667 45° Northeast 380 437 21,000 -1,200 Level Montreal Center
02:47PM 48.7333 -68.7500 43° Northeast 380 437 18,700 -2,280 Descending Montreal Center
02:48PM 48.8000 -68.6667 39° Northeast 370 426 16,500 -2,700 Descending Montreal Center
02:49PM 48.8667 -68.5500 49° Northeast 340 391 13,400 -3,000 Descending Montreal Center
02:50PM 48.9333 -68.4833 33° Northeast 300 345 10,500 -3,180 Descending Montreal Center
02:51PM 48.9280 -68.4982 43° Northeast  Level FlightAware Approximate
02:51PM 49.0000 -68.3667 49° Northeast 290 334 7,100  Level Montreal Center
02:53PM 49.0874 -68.2779 41° Northeast  Level FlightAware Approximate
03:00PM 49.1167 -68.2000 147° Southeast  Level FlightAware Approximate
03:01PM 49.1322 -68.2072 147° Southeast  Level Estimated
03:02PM 49.1322 -68.2072 147° Southeast  Level Estimated
03:03PM 49.1322 -68.2072 147° Southeast  Level Estimated
03:04PM 49.1322 -68.2072 147° Southeast  Level Estimated
03:05PM 49.1322 -68.2072 147° Southeast  Level Estimated
03:06PM 49.1322 -68.2072 147° Southeast  Level Estimated
03:07PM 49.1322 -68.2072 147° Southeast  Level Estimated